sensor_id;sensor_type;location;lat;lon;timestamp;pressure;altitude;pressure_sealevel;temperature;humidity
67430;BME280;54298;52.076;5.264;2022-07-30T00:00:43;101813.0;;;17.98;77.97
67430;BME280;54298;52.076;5.264;2022-07-30T00:02:31;101809.0;;;18.03;77.81
67430;BME280;54298;52.076;5.264;2022-07-30T00:04:17;101810.0;;;18.04;77.77
67430;BME280;54298;52.076;5.264;2022-07-30T00:06:04;101809.0;;;18.07;77.61
67430;BME280;54298;52.076;5.264;2022-07-30T00:07:51;101812.0;;;18.09;77.47
67430;BME280;54298;52.076;5.264;2022-07-30T00:11:25;101806.0;;;18.11;77.41
67430;BME280;54298;52.076;5.264;2022-07-30T00:13:11;101805.0;;;18.04;77.47
67430;BME280;54298;52.076;5.264;2022-07-30T00:14:58;101809.0;;;18.0;77.58
67430;BME280;54298;52.076;5.264;2022-07-30T00:16:45;101808.0;;;18.02;77.49
67430;BME280;54298;52.076;5.264;2022-07-30T00:18:32;101800.0;;;17.95;77.86
67430;BME280;54298;52.076;5.264;2022-07-30T00:20:18;101801.0;;;17.86;78.2
67430;BME280;54298;52.076;5.264;2022-07-30T00:23:51;101801.0;;;17.75;78.55
67430;BME280;54298;52.076;5.264;2022-07-30T00:25:37;101801.0;;;17.77;78.42
67430;BME280;54298;52.076;5.264;2022-07-30T00:27:25;101803.0;;;17.84;78.23
67430;BME280;54298;52.076;5.264;2022-07-30T00:29:11;101799.0;;;17.82;78.24
67430;BME280;54298;52.076;5.264;2022-07-30T00:30:58;101794.0;;;17.71;78.72
67430;BME280;54298;52.076;5.264;2022-07-30T00:34:31;101794.0;;;17.82;78.08
67430;BME280;54298;52.076;5.264;2022-07-30T00:36:17;101796.0;;;17.7;78.48
67430;BME280;54298;52.076;5.264;2022-07-30T00:38:04;101788.0;;;17.68;78.56
67430;BME280;54298;52.076;5.264;2022-07-30T00:39:51;101787.0;;;17.63;78.77
67430;BME280;54298;52.076;5.264;2022-07-30T00:41:51;101782.0;;;17.66;78.56
67430;BME280;54298;52.076;5.264;2022-07-30T00:43:39;101786.0;;;17.56;78.97
67430;BME280;54298;52.076;5.264;2022-07-30T00:45:26;101790.0;;;17.56;78.95
67430;BME280;54298;52.076;5.264;2022-07-30T00:49:00;101795.0;;;17.5;79.02
67430;BME280;54298;52.076;5.264;2022-07-30T00:50:47;101787.0;;;17.55;78.64
67430;BME280;54298;52.076;5.264;2022-07-30T00:52:33;101782.0;;;17.57;78.41
67430;BME280;54298;52.076;5.264;2022-07-30T00:54:20;101784.0;;;17.5;78.69
67430;BME280;54298;52.076;5.264;2022-07-30T00:56:07;101787.0;;;17.43;78.7
67430;BME280;54298;52.076;5.264;2022-07-30T00:57:53;101788.0;;;17.41;78.61
67430;BME280;54298;52.076;5.264;2022-07-30T01:01:25;101788.0;;;17.43;78.42
67430;BME280;54298;52.076;5.264;2022-07-30T01:03:12;101794.0;;;17.41;78.33
67430;BME280;54298;52.076;5.264;2022-07-30T01:04:58;101795.0;;;17.45;78.14
67430;BME280;54298;52.076;5.264;2022-07-30T01:06:44;101794.0;;;17.39;78.08
67430;BME280;54298;52.076;5.264;2022-07-30T01:08:30;101794.0;;;17.36;78.2
67430;BME280;54298;52.076;5.264;2022-07-30T01:12:08;101790.0;;;17.13;79.22
67430;BME280;54298;52.076;5.264;2022-07-30T01:13:55;101791.0;;;17.16;79.09
67430;BME280;54298;52.076;5.264;2022-07-30T01:15:41;101787.0;;;17.06;79.34
67430;BME280;54298;52.076;5.264;2022-07-30T01:17:28;101788.0;;;17.03;79.53
67430;BME280;54298;52.076;5.264;2022-07-30T01:20:23;101795.0;;;17.0;79.62
67430;BME280;54298;52.076;5.264;2022-07-30T01:22:24;101796.0;;;16.86;80.38
67430;BME280;54298;52.076;5.264;2022-07-30T01:24:21;101792.0;;;16.77;80.86
67430;BME280;54298;52.076;5.264;2022-07-30T01:26:17;101788.0;;;16.8;80.64
67430;BME280;54298;52.076;5.264;2022-07-30T01:28:06;101791.0;;;16.93;80.11
67430;BME280;54298;52.076;5.264;2022-07-30T01:29:57;101788.0;;;16.84;80.47
67430;BME280;54298;52.076;5.264;2022-07-30T01:31:44;101788.0;;;16.95;79.77
67430;BME280;54298;52.076;5.264;2022-07-30T01:33:37;101785.0;;;16.89;80.09
67430;BME280;54298;52.076;5.264;2022-07-30T01:37:16;101785.0;;;16.95;79.72
67430;BME280;54298;52.076;5.264;2022-07-30T01:39:04;101783.0;;;16.97;79.61
67430;BME280;54298;52.076;5.264;2022-07-30T01:40:53;101784.0;;;16.84;79.97
67430;BME280;54298;52.076;5.264;2022-07-30T01:42:43;101789.0;;;16.77;80.28
67430;BME280;54298;52.076;5.264;2022-07-30T01:44:31;101792.0;;;16.78;80.27
67430;BME280;54298;52.076;5.264;2022-07-30T01:46:17;101790.0;;;16.68;80.7
67430;BME280;54298;52.076;5.264;2022-07-30T01:48:07;101788.0;;;16.68;80.78
67430;BME280;54298;52.076;5.264;2022-07-30T01:51:46;101790.0;;;16.71;80.7
67430;BME280;54298;52.076;5.264;2022-07-30T01:53:37;101783.0;;;16.77;80.36
67430;BME280;54298;52.076;5.264;2022-07-30T01:55:28;101786.0;;;16.7;80.45
67430;BME280;54298;52.076;5.264;2022-07-30T01:57:26;101782.0;;;16.66;80.41
67430;BME280;54298;52.076;5.264;2022-07-30T01:59:17;101782.0;;;16.59;80.87
67430;BME280;54298;52.076;5.264;2022-07-30T02:01:04;101786.0;;;16.61;80.61
67430;BME280;54298;52.076;5.264;2022-07-30T02:02:51;101788.0;;;16.52;80.7
67430;BME280;54298;52.076;5.264;2022-07-30T02:06:28;101786.0;;;16.52;80.56
67430;BME280;54298;52.076;5.264;2022-07-30T02:08:32;101784.0;;;16.43;80.91
67430;BME280;54298;52.076;5.264;2022-07-30T02:10:25;101785.0;;;16.37;81.48
67430;BME280;54298;52.076;5.264;2022-07-30T02:12:29;101781.0;;;16.39;81.11
67430;BME280;54298;52.076;5.264;2022-07-30T02:14:21;101786.0;;;16.45;80.91
67430;BME280;54298;52.076;5.264;2022-07-30T02:16:16;101786.0;;;16.52;80.58
67430;BME280;54298;52.076;5.264;2022-07-30T02:18:09;101789.0;;;16.39;80.67
67430;BME280;54298;52.076;5.264;2022-07-30T02:19:59;101787.0;;;16.48;79.99
67430;BME280;54298;52.076;5.264;2022-07-30T02:21:48;101789.0;;;16.4;79.72
67430;BME280;54298;52.076;5.264;2022-07-30T02:23:46;101788.0;;;16.36;79.59
67430;BME280;54298;52.076;5.264;2022-07-30T02:27:31;101789.0;;;16.34;79.61
67430;BME280;54298;52.076;5.264;2022-07-30T02:29:19;101786.0;;;16.27;79.89
67430;BME280;54298;52.076;5.264;2022-07-30T02:31:08;101786.0;;;16.36;79.36
67430;BME280;54298;52.076;5.264;2022-07-30T02:33:05;101780.0;;;16.23;79.8
67430;BME280;54298;52.076;5.264;2022-07-30T02:34:58;101782.0;;;16.21;79.41
67430;BME280;54298;52.076;5.264;2022-07-30T02:36:46;101785.0;;;16.2;79.33
67430;BME280;54298;52.076;5.264;2022-07-30T02:38:34;101782.0;;;16.09;79.74
67430;BME280;54298;52.076;5.264;2022-07-30T02:42:11;101785.0;;;16.02;80.12
67430;BME280;54298;52.076;5.264;2022-07-30T02:44:01;101787.0;;;16.02;80.09
67430;BME280;54298;52.076;5.264;2022-07-30T02:45:48;101787.0;;;16.0;80.13
67430;BME280;54298;52.076;5.264;2022-07-30T02:47:37;101784.0;;;16.06;79.78
67430;BME280;54298;52.076;5.264;2022-07-30T02:49:25;101790.0;;;16.02;79.72
67430;BME280;54298;52.076;5.264;2022-07-30T02:51:15;101789.0;;;16.04;79.34
67430;BME280;54298;52.076;5.264;2022-07-30T02:53:04;101786.0;;;15.9;79.72
67430;BME280;54298;52.076;5.264;2022-07-30T02:56:43;101790.0;;;15.94;79.49
67430;BME280;54298;52.076;5.264;2022-07-30T02:58:32;101791.0;;;15.87;79.7
67430;BME280;54298;52.076;5.264;2022-07-30T03:00:23;101791.0;;;15.91;79.34
67430;BME280;54298;52.076;5.264;2022-07-30T03:02:11;101789.0;;;15.96;78.89
67430;BME280;54298;52.076;5.264;2022-07-30T03:03:58;101788.0;;;15.98;78.67
67430;BME280;54298;52.076;5.264;2022-07-30T03:05:48;101789.0;;;15.82;79.03
67430;BME280;54298;52.076;5.264;2022-07-30T03:07:37;101786.0;;;15.78;79.23
67430;BME280;54298;52.076;5.264;2022-07-30T03:11:12;101793.0;;;15.76;79.38
67430;BME280;54298;52.076;5.264;2022-07-30T03:13:01;101793.0;;;15.67;79.8
67430;BME280;54298;52.076;5.264;2022-07-30T03:14:49;101796.0;;;15.59;80.22
67430;BME280;54298;52.076;5.264;2022-07-30T03:16:37;101795.0;;;15.65;79.95
67430;BME280;54298;52.076;5.264;2022-07-30T03:18:27;101795.0;;;15.72;79.39
67430;BME280;54298;52.076;5.264;2022-07-30T03:20:20;101792.0;;;15.7;78.99
67430;BME280;54298;52.076;5.264;2022-07-30T03:24:04;101789.0;;;15.57;79.16
67430;BME280;54298;52.076;5.264;2022-07-30T03:25:55;101795.0;;;15.62;78.8
67430;BME280;54298;52.076;5.264;2022-07-30T03:27:42;101796.0;;;15.5;79.08
67430;BME280;54298;52.076;5.264;2022-07-30T03:29:31;101790.0;;;15.5;78.95
67430;BME280;54298;52.076;5.264;2022-07-30T03:31:18;101795.0;;;15.58;78.53
67430;BME280;54298;52.076;5.264;2022-07-30T03:33:05;101792.0;;;15.57;78.33
67430;BME280;54298;52.076;5.264;2022-07-30T03:34:54;101790.0;;;15.51;78.33
67430;BME280;54298;52.076;5.264;2022-07-30T03:38:29;101788.0;;;15.45;78.36
67430;BME280;54298;52.076;5.264;2022-07-30T03:40:16;101789.0;;;15.48;77.88
67430;BME280;54298;52.076;5.264;2022-07-30T03:42:05;101791.0;;;15.38;78.02
67430;BME280;54298;52.076;5.264;2022-07-30T03:43:53;101789.0;;;15.33;78.12
67430;BME280;54298;52.076;5.264;2022-07-30T03:45:43;101791.0;;;15.24;78.73
67430;BME280;54298;52.076;5.264;2022-07-30T03:47:32;101789.0;;;15.24;78.86
67430;BME280;54298;52.076;5.264;2022-07-30T03:51:10;101789.0;;;15.22;79.08
67430;BME280;54298;52.076;5.264;2022-07-30T03:52:57;101791.0;;;15.1;79.63
67430;BME280;54298;52.076;5.264;2022-07-30T03:54:45;101793.0;;;15.18;79.36
67430;BME280;54298;52.076;5.264;2022-07-30T03:56:32;101792.0;;;15.24;78.78
67430;BME280;54298;52.076;5.264;2022-07-30T03:58:19;101793.0;;;15.18;78.27
67430;BME280;54298;52.076;5.264;2022-07-30T04:00:12;101801.0;;;15.01;79.05
67430;BME280;54298;52.076;5.264;2022-07-30T04:02:01;101806.0;;;14.86;80.22
67430;BME280;54298;52.076;5.264;2022-07-30T04:05:35;101798.0;;;14.98;79.75
67430;BME280;54298;52.076;5.264;2022-07-30T04:07:21;101805.0;;;15.06;79.55
67430;BME280;54298;52.076;5.264;2022-07-30T04:09:10;101810.0;;;14.93;80.37
67430;BME280;54298;52.076;5.264;2022-07-30T04:10:57;101810.0;;;14.95;80.36
67430;BME280;54298;52.076;5.264;2022-07-30T04:12:44;101810.0;;;14.91;80.44
67430;BME280;54298;52.076;5.264;2022-07-30T04:14:39;101811.0;;;14.97;80.24
67430;BME280;54298;52.076;5.264;2022-07-30T04:18:23;101814.0;;;14.94;80.66
67430;BME280;54298;52.076;5.264;2022-07-30T04:20:14;101816.0;;;14.93;80.86
67430;BME280;54298;52.076;5.264;2022-07-30T04:22:06;101818.0;;;14.95;80.92
67430;BME280;54298;52.076;5.264;2022-07-30T04:23:56;101814.0;;;14.98;80.91
67430;BME280;54298;52.076;5.264;2022-07-30T04:25:45;101818.0;;;14.94;81.09
67430;BME280;54298;52.076;5.264;2022-07-30T04:27:33;101820.0;;;14.99;80.83
67430;BME280;54298;52.076;5.264;2022-07-30T04:29:20;101823.0;;;14.96;80.94
67430;BME280;54298;52.076;5.264;2022-07-30T04:32:55;101822.0;;;15.02;80.52
67430;BME280;54298;52.076;5.264;2022-07-30T04:34:46;101821.0;;;15.05;80.13
67430;BME280;54298;52.076;5.264;2022-07-30T04:36:33;101825.0;;;15.06;79.8
67430;BME280;54298;52.076;5.264;2022-07-30T04:38:20;101824.0;;;15.06;79.45
67430;BME280;54298;52.076;5.264;2022-07-30T04:40:08;101817.0;;;14.92;80.05
67430;BME280;54298;52.076;5.264;2022-07-30T04:41:54;101827.0;;;14.87;80.69
67430;BME280;54298;52.076;5.264;2022-07-30T04:45:27;101830.0;;;14.9;81.03
67430;BME280;54298;52.076;5.264;2022-07-30T04:47:14;101827.0;;;14.86;81.42
67430;BME280;54298;52.076;5.264;2022-07-30T04:49:00;101827.0;;;15.01;80.77
67430;BME280;54298;52.076;5.264;2022-07-30T04:50:50;101826.0;;;15.02;80.52
67430;BME280;54298;52.076;5.264;2022-07-30T04:52:39;101825.0;;;15.07;80.44
67430;BME280;54298;52.076;5.264;2022-07-30T04:54:28;101820.0;;;15.0;80.89
67430;BME280;54298;52.076;5.264;2022-07-30T04:56:25;101826.0;;;14.95;81.49
67430;BME280;54298;52.076;5.264;2022-07-30T05:00:06;101823.0;;;15.05;81.3
67430;BME280;54298;52.076;5.264;2022-07-30T05:01:55;101823.0;;;15.13;80.94
67430;BME280;54298;52.076;5.264;2022-07-30T05:03:44;101821.0;;;15.16;80.81
67430;BME280;54298;52.076;5.264;2022-07-30T05:05:32;101823.0;;;15.08;81.11
67430;BME280;54298;52.076;5.264;2022-07-30T05:07:21;101828.0;;;15.03;81.49
67430;BME280;54298;52.076;5.264;2022-07-30T05:09:08;101830.0;;;15.05;81.87
67430;BME280;54298;52.076;5.264;2022-07-30T05:12:42;101831.0;;;15.15;81.77
67430;BME280;54298;52.076;5.264;2022-07-30T05:14:28;101836.0;;;15.14;81.91
67430;BME280;54298;52.076;5.264;2022-07-30T05:16:15;101840.0;;;15.19;81.86
67430;BME280;54298;52.076;5.264;2022-07-30T05:18:01;101841.0;;;15.26;81.81
67430;BME280;54298;52.076;5.264;2022-07-30T05:19:47;101840.0;;;15.41;81.3
67430;BME280;54298;52.076;5.264;2022-07-30T05:21:33;101838.0;;;15.42;81.31
67430;BME280;54298;52.076;5.264;2022-07-30T05:25:08;101844.0;;;15.35;81.48
67430;BME280;54298;52.076;5.264;2022-07-30T05:26:54;101840.0;;;15.52;81.11
67430;BME280;54298;52.076;5.264;2022-07-30T05:28:41;101847.0;;;15.58;81.38
67430;BME280;54298;52.076;5.264;2022-07-30T05:30:27;101844.0;;;15.67;80.94
67430;BME280;54298;52.076;5.264;2022-07-30T05:32:13;101840.0;;;15.78;80.69
67430;BME280;54298;52.076;5.264;2022-07-30T05:34:00;101845.0;;;15.87;79.91
67430;BME280;54298;52.076;5.264;2022-07-30T05:37:34;101845.0;;;15.95;79.45
67430;BME280;54298;52.076;5.264;2022-07-30T05:39:20;101848.0;;;15.92;79.94
67430;BME280;54298;52.076;5.264;2022-07-30T05:41:07;101846.0;;;15.97;80.37
67430;BME280;54298;52.076;5.264;2022-07-30T05:42:53;101840.0;;;16.09;80.88
67430;BME280;54298;52.076;5.264;2022-07-30T05:44:39;101845.0;;;16.25;81.17
67430;BME280;54298;52.076;5.264;2022-07-30T05:48:13;101847.0;;;16.29;80.91
67430;BME280;54298;52.076;5.264;2022-07-30T05:49:59;101853.0;;;16.4;80.97
67430;BME280;54298;52.076;5.264;2022-07-30T05:51:45;101853.0;;;16.5;80.72
67430;BME280;54298;52.076;5.264;2022-07-30T05:53:31;101860.0;;;16.61;81.02
67430;BME280;54298;52.076;5.264;2022-07-30T05:55:18;101861.0;;;16.57;82.0
67430;BME280;54298;52.076;5.264;2022-07-30T05:57:05;101865.0;;;16.84;81.08
67430;BME280;54298;52.076;5.264;2022-07-30T06:00:37;101864.0;;;17.02;80.67
67430;BME280;54298;52.076;5.264;2022-07-30T06:02:24;101865.0;;;17.14;79.84
67430;BME280;54298;52.076;5.264;2022-07-30T06:04:10;101866.0;;;17.23;79.87
67430;BME280;54298;52.076;5.264;2022-07-30T06:05:57;101867.0;;;17.27;79.55
67430;BME280;54298;52.076;5.264;2022-07-30T06:07:43;101872.0;;;17.34;79.11
67430;BME280;54298;52.076;5.264;2022-07-30T06:11:16;101869.0;;;17.5;78.38
67430;BME280;54298;52.076;5.264;2022-07-30T06:13:02;101865.0;;;17.56;78.14
67430;BME280;54298;52.076;5.264;2022-07-30T06:14:49;101869.0;;;17.72;77.61
67430;BME280;54298;52.076;5.264;2022-07-30T06:16:35;101867.0;;;17.79;76.8
67430;BME280;54298;52.076;5.264;2022-07-30T06:18:21;101866.0;;;17.75;76.34
67430;BME280;54298;52.076;5.264;2022-07-30T06:20:09;101867.0;;;17.93;75.58
67430;BME280;54298;52.076;5.264;2022-07-30T06:23:42;101874.0;;;18.03;75.34
67430;BME280;54298;52.076;5.264;2022-07-30T06:25:30;101878.0;;;18.12;74.8
67430;BME280;54298;52.076;5.264;2022-07-30T06:27:17;101873.0;;;18.27;74.25
67430;BME280;54298;52.076;5.264;2022-07-30T06:29:04;101876.0;;;18.25;74.38
67430;BME280;54298;52.076;5.264;2022-07-30T06:30:51;101878.0;;;18.5;73.3
67430;BME280;54298;52.076;5.264;2022-07-30T06:32:39;101876.0;;;18.5;72.69
67430;BME280;54298;52.076;5.264;2022-07-30T06:36:11;101876.0;;;18.55;71.63
67430;BME280;54298;52.076;5.264;2022-07-30T06:37:58;101873.0;;;18.66;71.3
67430;BME280;54298;52.076;5.264;2022-07-30T06:39:45;101875.0;;;18.68;71.3
67430;BME280;54298;52.076;5.264;2022-07-30T06:41:31;101880.0;;;18.5;70.81
67430;BME280;54298;52.076;5.264;2022-07-30T06:43:18;101873.0;;;18.7;70.33
67430;BME280;54298;52.076;5.264;2022-07-30T06:46:54;101876.0;;;18.87;69.87
67430;BME280;54298;52.076;5.264;2022-07-30T06:48:41;101877.0;;;18.86;69.64
67430;BME280;54298;52.076;5.264;2022-07-30T06:50:28;101873.0;;;18.91;68.94
67430;BME280;54298;52.076;5.264;2022-07-30T06:52:14;101871.0;;;19.0;68.24
67430;BME280;54298;52.076;5.264;2022-07-30T06:54:00;101877.0;;;19.18;68.08
67430;BME280;54298;52.076;5.264;2022-07-30T06:55:47;101876.0;;;19.04;67.91
67430;BME280;54298;52.076;5.264;2022-07-30T06:59:20;101875.0;;;19.03;67.47
67430;BME280;54298;52.076;5.264;2022-07-30T07:01:07;101880.0;;;19.02;67.49
67430;BME280;54298;52.076;5.264;2022-07-30T07:02:54;101876.0;;;18.82;67.28
67430;BME280;54298;52.076;5.264;2022-07-30T07:06:27;101877.0;;;18.87;67.8
67430;BME280;54298;52.076;5.264;2022-07-30T07:08:14;101878.0;;;18.98;67.3
67430;BME280;54298;52.076;5.264;2022-07-30T07:11:46;101878.0;;;19.11;66.7
67430;BME280;54298;52.076;5.264;2022-07-30T07:13:33;101876.0;;;19.09;66.55
67430;BME280;54298;52.076;5.264;2022-07-30T07:15:20;101882.0;;;19.27;66.31
67430;BME280;54298;52.076;5.264;2022-07-30T07:17:07;101878.0;;;19.27;65.83
67430;BME280;54298;52.076;5.264;2022-07-30T07:18:53;101884.0;;;19.43;65.33
67430;BME280;54298;52.076;5.264;2022-07-30T07:20:42;101887.0;;;19.45;64.94
67430;BME280;54298;52.076;5.264;2022-07-30T07:24:14;101889.0;;;19.52;63.88
67430;BME280;54298;52.076;5.264;2022-07-30T07:26:01;101888.0;;;19.55;64.03
67430;BME280;54298;52.076;5.264;2022-07-30T07:27:47;101885.0;;;19.54;63.36
67430;BME280;54298;52.076;5.264;2022-07-30T07:29:33;101883.0;;;19.56;63.3
67430;BME280;54298;52.076;5.264;2022-07-30T07:31:19;101885.0;;;19.63;63.37
67430;BME280;54298;52.076;5.264;2022-07-30T07:34:51;101885.0;;;19.7;63.13
67430;BME280;54298;52.076;5.264;2022-07-30T07:36:38;101886.0;;;19.68;63.43
67430;BME280;54298;52.076;5.264;2022-07-30T07:38:25;101890.0;;;19.77;62.4
67430;BME280;54298;52.076;5.264;2022-07-30T07:40:12;101891.0;;;19.71;62.45
67430;BME280;54298;52.076;5.264;2022-07-30T07:41:58;101891.0;;;19.88;62.42
67430;BME280;54298;52.076;5.264;2022-07-30T07:43:44;101897.0;;;19.77;62.88
67430;BME280;54298;52.076;5.264;2022-07-30T07:47:16;101900.0;;;19.93;62.76
67430;BME280;54298;52.076;5.264;2022-07-30T07:49:03;101895.0;;;20.11;62.34
67430;BME280;54298;52.076;5.264;2022-07-30T07:50:50;101896.0;;;20.22;61.3
67430;BME280;54298;52.076;5.264;2022-07-30T07:52:36;101895.0;;;20.16;60.21
67430;BME280;54298;52.076;5.264;2022-07-30T07:54:22;101899.0;;;20.14;60.27
67430;BME280;54298;52.076;5.264;2022-07-30T07:57:55;101898.0;;;20.03;60.52
67430;BME280;54298;52.076;5.264;2022-07-30T07:59:42;101898.0;;;20.16;60.03
67430;BME280;54298;52.076;5.264;2022-07-30T08:01:28;101903.0;;;20.27;60.46
67430;BME280;54298;52.076;5.264;2022-07-30T08:03:15;101897.0;;;20.22;60.43
67430;BME280;54298;52.076;5.264;2022-07-30T08:05:01;101899.0;;;20.28;59.96
67430;BME280;54298;52.076;5.264;2022-07-30T08:06:48;101891.0;;;20.3;59.72
67430;BME280;54298;52.076;5.264;2022-07-30T08:10:23;101894.0;;;20.27;59.75
67430;BME280;54298;52.076;5.264;2022-07-30T08:12:10;101891.0;;;20.22;58.73
67430;BME280;54298;52.076;5.264;2022-07-30T08:13:57;101890.0;;;20.39;58.92
67430;BME280;54298;52.076;5.264;2022-07-30T08:15:44;101884.0;;;20.43;58.83
67430;BME280;54298;52.076;5.264;2022-07-30T08:17:31;101881.0;;;20.41;58.77
67430;BME280;54298;52.076;5.264;2022-07-30T08:19:18;101887.0;;;20.49;58.67
67430;BME280;54298;52.076;5.264;2022-07-30T08:22:52;101888.0;;;20.5;58.47
67430;BME280;54298;52.076;5.264;2022-07-30T08:24:38;101887.0;;;20.54;57.25
67430;BME280;54298;52.076;5.264;2022-07-30T08:26:25;101897.0;;;20.3;56.85
67430;BME280;54298;52.076;5.264;2022-07-30T08:28:11;101899.0;;;20.54;57.15
67430;BME280;54298;52.076;5.264;2022-07-30T08:29:57;101895.0;;;20.22;57.13
67430;BME280;54298;52.076;5.264;2022-07-30T08:33:30;101889.0;;;20.34;57.61
67430;BME280;54298;52.076;5.264;2022-07-30T08:35:18;101890.0;;;20.41;57.33
67430;BME280;54298;52.076;5.264;2022-07-30T08:37:05;101889.0;;;20.41;57.46
67430;BME280;54298;52.076;5.264;2022-07-30T08:38:52;101888.0;;;20.64;56.83
67430;BME280;54298;52.076;5.264;2022-07-30T08:40:38;101884.0;;;20.63;56.25
67430;BME280;54298;52.076;5.264;2022-07-30T08:42:26;101880.0;;;20.69;55.54
67430;BME280;54298;52.076;5.264;2022-07-30T08:46:07;101886.0;;;20.73;55.46
67430;BME280;54298;52.076;5.264;2022-07-30T08:47:58;101884.0;;;20.82;55.38
67430;BME280;54298;52.076;5.264;2022-07-30T08:49:46;101887.0;;;20.91;54.89
67430;BME280;54298;52.076;5.264;2022-07-30T08:51:35;101880.0;;;20.98;53.13
67430;BME280;54298;52.076;5.264;2022-07-30T08:53:22;101883.0;;;20.87;53.64
67430;BME280;54298;52.076;5.264;2022-07-30T08:55:09;101885.0;;;20.88;52.58
67430;BME280;54298;52.076;5.264;2022-07-30T08:56:57;101888.0;;;20.89;52.27
67430;BME280;54298;52.076;5.264;2022-07-30T09:00:31;101889.0;;;21.12;52.15
67430;BME280;54298;52.076;5.264;2022-07-30T09:02:18;101887.0;;;20.86;51.99
67430;BME280;54298;52.076;5.264;2022-07-30T09:04:04;101883.0;;;20.97;51.63
67430;BME280;54298;52.076;5.264;2022-07-30T09:05:50;101886.0;;;21.17;51.39
67430;BME280;54298;52.076;5.264;2022-07-30T09:07:37;101889.0;;;21.18;52.4
67430;BME280;54298;52.076;5.264;2022-07-30T09:11:10;101887.0;;;21.26;52.47
67430;BME280;54298;52.076;5.264;2022-07-30T09:12:58;101894.0;;;21.31;52.87
67430;BME280;54298;52.076;5.264;2022-07-30T09:15:00;101902.0;;;21.37;53.65
67430;BME280;54298;52.076;5.264;2022-07-30T09:16:54;101907.0;;;21.57;52.56
67430;BME280;54298;52.076;5.264;2022-07-30T09:18:43;101909.0;;;21.51;52.49
67430;BME280;54298;52.076;5.264;2022-07-30T09:20:32;101908.0;;;21.53;51.97
67430;BME280;54298;52.076;5.264;2022-07-30T09:22:19;101913.0;;;21.32;52.31
67430;BME280;54298;52.076;5.264;2022-07-30T09:25:57;101908.0;;;21.39;51.39
67430;BME280;54298;52.076;5.264;2022-07-30T09:27:45;101906.0;;;21.53;51.88
67430;BME280;54298;52.076;5.264;2022-07-30T09:29:33;101913.0;;;21.59;52.03
67430;BME280;54298;52.076;5.264;2022-07-30T09:31:21;101908.0;;;21.58;51.8
67430;BME280;54298;52.076;5.264;2022-07-30T09:33:08;101906.0;;;21.77;51.4
67430;BME280;54298;52.076;5.264;2022-07-30T09:34:54;101907.0;;;21.89;51.91
67430;BME280;54298;52.076;5.264;2022-07-30T09:36:40;101906.0;;;21.87;52.35
67430;BME280;54298;52.076;5.264;2022-07-30T09:40:17;101906.0;;;22.05;52.79
67430;BME280;54298;52.076;5.264;2022-07-30T09:42:16;101911.0;;;21.86;47.24
67430;BME280;54298;52.076;5.264;2022-07-30T09:44:04;101906.0;;;22.06;47.33
67430;BME280;54298;52.076;5.264;2022-07-30T09:45:53;101902.0;;;22.1;48.28
67430;BME280;54298;52.076;5.264;2022-07-30T09:47:41;101908.0;;;22.15;48.19
67430;BME280;54298;52.076;5.264;2022-07-30T09:49:28;101905.0;;;22.09;46.82
67430;BME280;54298;52.076;5.264;2022-07-30T09:53:06;101906.0;;;22.18;47.8
67430;BME280;54298;52.076;5.264;2022-07-30T09:54:54;101903.0;;;22.3;48.44
67430;BME280;54298;52.076;5.264;2022-07-30T09:56:40;101900.0;;;22.45;49.08
67430;BME280;54298;52.076;5.264;2022-07-30T09:58:37;101896.0;;;22.41;49.69
67430;BME280;54298;52.076;5.264;2022-07-30T10:00:26;101887.0;;;22.5;49.44
67430;BME280;54298;52.076;5.264;2022-07-30T10:02:13;101886.0;;;22.52;50.07
67430;BME280;54298;52.076;5.264;2022-07-30T10:03:59;101885.0;;;22.61;49.93
67430;BME280;54298;52.076;5.264;2022-07-30T10:07:37;101888.0;;;22.73;48.99
67430;BME280;54298;52.076;5.264;2022-07-30T10:09:25;101884.0;;;22.86;48.97
67430;BME280;54298;52.076;5.264;2022-07-30T10:11:14;101887.0;;;22.81;48.94
67430;BME280;54298;52.076;5.264;2022-07-30T10:13:02;101886.0;;;22.79;48.45
67430;BME280;54298;52.076;5.264;2022-07-30T10:14:52;101886.0;;;22.61;49.51
67430;BME280;54298;52.076;5.264;2022-07-30T10:16:39;101883.0;;;22.76;49.19
67430;BME280;54298;52.076;5.264;2022-07-30T10:20:13;101880.0;;;22.91;49.26
67430;BME280;54298;52.076;5.264;2022-07-30T10:22:01;101876.0;;;22.99;48.89
67430;BME280;54298;52.076;5.264;2022-07-30T10:23:50;101874.0;;;23.08;48.8
67430;BME280;54298;52.076;5.264;2022-07-30T10:25:37;101875.0;;;22.99;48.74
67430;BME280;54298;52.076;5.264;2022-07-30T10:27:25;101874.0;;;23.05;48.63
67430;BME280;54298;52.076;5.264;2022-07-30T10:29:14;101880.0;;;23.03;48.64
67430;BME280;54298;52.076;5.264;2022-07-30T10:32:49;101874.0;;;23.2;48.27
67430;BME280;54298;52.076;5.264;2022-07-30T10:34:38;101881.0;;;23.26;48.3
67430;BME280;54298;52.076;5.264;2022-07-30T10:36:25;101881.0;;;23.34;47.94
67430;BME280;54298;52.076;5.264;2022-07-30T10:38:14;101884.0;;;23.13;47.63
67430;BME280;54298;52.076;5.264;2022-07-30T10:40:05;101882.0;;;23.24;47.92
67430;BME280;54298;52.076;5.264;2022-07-30T10:42:09;101882.0;;;23.37;47.3
67430;BME280;54298;52.076;5.264;2022-07-30T10:44:19;101874.0;;;23.3;46.88
67430;BME280;54298;52.076;5.264;2022-07-30T10:46:33;101877.0;;;23.35;47.8
67430;BME280;54298;52.076;5.264;2022-07-30T10:48:24;101877.0;;;23.55;47.37
67430;BME280;54298;52.076;5.264;2022-07-30T10:50:13;101875.0;;;23.65;47.05
67430;BME280;54298;52.076;5.264;2022-07-30T10:52:02;101883.0;;;23.68;46.68
67430;BME280;54298;52.076;5.264;2022-07-30T10:55:34;101880.0;;;23.85;46.66
67430;BME280;54298;52.076;5.264;2022-07-30T10:57:21;101880.0;;;23.98;46.13
67430;BME280;54298;52.076;5.264;2022-07-30T10:59:09;101880.0;;;24.0;45.57
67430;BME280;54298;52.076;5.264;2022-07-30T11:00:57;101880.0;;;23.85;45.07
67430;BME280;54298;52.076;5.264;2022-07-30T11:03:20;101885.0;;;23.98;45.18
67430;BME280;54298;52.076;5.264;2022-07-30T11:05:24;101882.0;;;23.98;44.67
67430;BME280;54298;52.076;5.264;2022-07-30T11:07:28;101885.0;;;24.06;44.89